sensor_id;sensor_type;location;lat;lon;timestamp;temperature;humidity
2867;DHT22;1441;48.886;8.728;2022-12-11T00:00:51;0.10;99.90
2867;DHT22;1441;48.886;8.728;2022-12-11T00:03:17;0.00;99.90
2867;DHT22;1441;48.886;8.728;2022-12-11T00:05:44;-0.10;99.90
2867;DHT22;1441;48.886;8.728;2022-12-11T00:08:10;-0.30;99.90
2867;DHT22;1441;48.886;8.728;2022-12-11T00:10:35;-0.40;99.90
2867;DHT22;1441;48.886;8.728;2022-12-11T00:13:01;-0.40;99.90
2867;DHT22;1441;48.886;8.728;2022-12-11T00:15:27;-0.40;99.90
2867;DHT22;1441;48.886;8.728;2022-12-11T00:17:53;-0.40;99.90
2867;DHT22;1441;48.886;8.728;2022-12-11T00:20:18;-0.20;99.90
2867;DHT22;1441;48.886;8.728;2022-12-11T00:22:44;-0.20;99.90
2867;DHT22;1441;48.886;8.728;2022-12-11T00:25:09;-0.30;99.90
2867;DHT22;1441;48.886;8.728;2022-12-11T00:27:35;-0.50;99.90
2867;DHT22;1441;48.886;8.728;2022-12-11T00:30:01;-0.50;99.90
2867;DHT22;1441;48.886;8.728;2022-12-11T00:32:26;-0.60;99.90
2867;DHT22;1441;48.886;8.728;2022-12-11T00:34:52;-0.70;99.90
2867;DHT22;1441;48.886;8.728;2022-12-11T00:37:17;-0.70;99.90
2867;DHT22;1441;48.886;8.728;2022-12-11T00:39:44;-0.70;99.90
2867;DHT22;1441;48.886;8.728;2022-12-11T00:42:10;-0.70;99.90
2867;DHT22;1441;48.886;8.728;2022-12-11T00:44:35;-0.60;99.90
2867;DHT22;1441;48.886;8.728;2022-12-11T00:47:01;-0.50;99.90
2867;DHT22;1441;48.886;8.728;2022-12-11T00:49:27;-0.50;99.90
2867;DHT22;1441;48.886;8.728;2022-12-11T00:51:53;-0.50;99.90
2867;DHT22;1441;48.886;8.728;2022-12-11T00:54:18;-0.50;99.90
2867;DHT22;1441;48.886;8.728;2022-12-11T00:56:44;-0.50;99.90
2867;DHT22;1441;48.886;8.728;2022-12-11T00:59:10;-0.40;99.90
2867;DHT22;1441;48.886;8.728;2022-12-11T01:01:35;-0.40;99.90
2867;DHT22;1441;48.886;8.728;2022-12-11T01:04:01;-0.40;99.90
2867;DHT22;1441;48.886;8.728;2022-12-11T01:06:27;-0.50;99.90
2867;DHT22;1441;48.886;8.728;2022-12-11T01:08:53;-0.40;99.90
2867;DHT22;1441;48.886;8.728;2022-12-11T01:11:38;-0.40;99.90
2867;DHT22;1441;48.886;8.728;2022-12-11T01:14:05;-0.50;99.90
2867;DHT22;1441;48.886;8.728;2022-12-11T01:16:30;-0.50;99.90
2867;DHT22;1441;48.886;8.728;2022-12-11T01:18:57;-0.60;99.90
2867;DHT22;1441;48.886;8.728;2022-12-11T01:21:23;-0.60;99.90
2867;DHT22;1441;48.886;8.728;2022-12-11T01:23:50;-0.60;99.90
2867;DHT22;1441;48.886;8.728;2022-12-11T01:26:16;-0.70;99.90
2867;DHT22;1441;48.886;8.728;2022-12-11T01:28:42;-0.70;99.90
2867;DHT22;1441;48.886;8.728;2022-12-11T01:31:14;-0.70;99.90
2867;DHT22;1441;48.886;8.728;2022-12-11T01:33:40;-0.80;99.90
2867;DHT22;1441;48.886;8.728;2022-12-11T01:36:17;-0.80;99.90
2867;DHT22;1441;48.886;8.728;2022-12-11T01:38:44;-0.80;99.90
2867;DHT22;1441;48.886;8.728;2022-12-11T01:41:10;-0.80;99.90
2867;DHT22;1441;48.886;8.728;2022-12-11T01:46:41;-0.90;99.90
2867;DHT22;1441;48.886;8.728;2022-12-11T01:49:11;-0.90;99.90
2867;DHT22;1441;48.886;8.728;2022-12-11T01:51:46;-0.90;99.90
2867;DHT22;1441;48.886;8.728;2022-12-11T01:54:14;-0.90;99.90
2867;DHT22;1441;48.886;8.728;2022-12-11T01:56:42;-1.00;99.90
2867;DHT22;1441;48.886;8.728;2022-12-11T01:59:10;-1.00;99.90
2867;DHT22;1441;48.886;8.728;2022-12-11T02:02:39;-1.10;99.90
2867;DHT22;1441;48.886;8.728;2022-12-11T02:04:41;-1.10;99.90
2867;DHT22;1441;48.886;8.728;2022-12-11T02:07:08;-1.00;99.90
2867;DHT22;1441;48.886;8.728;2022-12-11T02:09:36;-1.10;99.90
2867;DHT22;1441;48.886;8.728;2022-12-11T02:14:54;-1.20;99.90
2867;DHT22;1441;48.886;8.728;2022-12-11T02:22:57;-1.20;99.90
2867;DHT22;1441;48.886;8.728;2022-12-11T02:25:52;-1.20;99.90
2867;DHT22;1441;48.886;8.728;2022-12-11T02:28:30;-1.30;99.90
2867;DHT22;1441;48.886;8.728;2022-12-11T02:31:08;-1.30;99.90
2867;DHT22;1441;48.886;8.728;2022-12-11T02:33:44;-1.20;99.90
2867;DHT22;1441;48.886;8.728;2022-12-11T02:36:15;-1.40;99.90
2867;DHT22;1441;48.886;8.728;2022-12-11T02:38:44;-1.40;99.90
2867;DHT22;1441;48.886;8.728;2022-12-11T02:41:15;-1.30;99.90
2867;DHT22;1441;48.886;8.728;2022-12-11T02:43:42;-1.20;99.90
2867;DHT22;1441;48.886;8.728;2022-12-11T02:46:09;-1.00;99.90
2867;DHT22;1441;48.886;8.728;2022-12-11T02:48:37;-1.00;99.90
2867;DHT22;1441;48.886;8.728;2022-12-11T02:51:04;-1.10;99.90
2867;DHT22;1441;48.886;8.728;2022-12-11T02:53:32;-1.00;99.90
2867;DHT22;1441;48.886;8.728;2022-12-11T02:57:13;-1.10;99.90
2867;DHT22;1441;48.886;8.728;2022-12-11T02:59:10;-1.00;99.90
2867;DHT22;1441;48.886;8.728;2022-12-11T03:01:38;-1.10;99.90
2867;DHT22;1441;48.886;8.728;2022-12-11T03:04:04;-1.10;99.90
2867;DHT22;1441;48.886;8.728;2022-12-11T03:06:44;-0.90;99.90
2867;DHT22;1441;48.886;8.728;2022-12-11T03:09:12;-0.90;99.90
2867;DHT22;1441;48.886;8.728;2022-12-11T03:11:37;-0.70;99.90
2867;DHT22;1441;48.886;8.728;2022-12-11T03:14:03;-0.80;99.90
2867;DHT22;1441;48.886;8.728;2022-12-11T03:16:34;-0.90;99.90
2867;DHT22;1441;48.886;8.728;2022-12-11T03:19:17;-0.80;99.90
2867;DHT22;1441;48.886;8.728;2022-12-11T03:21:52;-0.70;99.90
2867;DHT22;1441;48.886;8.728;2022-12-11T03:26:59;-0.40;99.70
2867;DHT22;1441;48.886;8.728;2022-12-11T03:29:30;-0.50;99.60
2867;DHT22;1441;48.886;8.728;2022-12-11T03:32:11;-0.50;99.90
2867;DHT22;1441;48.886;8.728;2022-12-11T03:34:43;-0.50;99.90
2867;DHT22;1441;48.886;8.728;2022-12-11T03:37:10;-0.60;99.90
2867;DHT22;1441;48.886;8.728;2022-12-11T03:39:41;-0.50;99.90
2867;DHT22;1441;48.886;8.728;2022-12-11T03:42:10;-0.50;99.80
2867;DHT22;1441;48.886;8.728;2022-12-11T03:44:36;-0.50;99.90
2867;DHT22;1441;48.886;8.728;2022-12-11T03:47:04;-0.50;99.80
2867;DHT22;1441;48.886;8.728;2022-12-11T03:49:34;-0.50;99.90
2867;DHT22;1441;48.886;8.728;2022-12-11T03:52:02;-0.60;99.90
2867;DHT22;1441;48.886;8.728;2022-12-11T03:54:29;-0.60;99.90
2867;DHT22;1441;48.886;8.728;2022-12-11T03:56:57;-0.50;99.90
2867;DHT22;1441;48.886;8.728;2022-12-11T03:59:23;-0.50;99.30
2867;DHT22;1441;48.886;8.728;2022-12-11T04:01:49;-0.70;99.90
2867;DHT22;1441;48.886;8.728;2022-12-11T04:04:15;-0.70;99.90
2867;DHT22;1441;48.886;8.728;2022-12-11T04:06:41;-0.70;99.90
2867;DHT22;1441;48.886;8.728;2022-12-11T04:09:07;-0.60;99.70
2867;DHT22;1441;48.886;8.728;2022-12-11T04:11:32;-0.70;99.90
2867;DHT22;1441;48.886;8.728;2022-12-11T04:14:09;-0.60;99.80
2867;DHT22;1441;48.886;8.728;2022-12-11T04:16:54;-0.60;99.30
2867;DHT22;1441;48.886;8.728;2022-12-11T04:19:22;-0.70;99.90
2867;DHT22;1441;48.886;8.728;2022-12-11T04:22:06;-0.80;99.90
2867;DHT22;1441;48.886;8.728;2022-12-11T04:24:50;-0.80;99.90
2867;DHT22;1441;48.886;8.728;2022-12-11T04:27:16;-0.80;99.90
2867;DHT22;1441;48.886;8.728;2022-12-11T04:30:05;-0.80;99.90
2867;DHT22;1441;48.886;8.728;2022-12-11T04:32:31;-0.80;99.90
2867;DHT22;1441;48.886;8.728;2022-12-11T04:34:56;-0.80;99.90
2867;DHT22;1441;48.886;8.728;2022-12-11T04:37:22;-0.70;99.90
2867;DHT22;1441;48.886;8.728;2022-12-11T04:39:48;-0.60;99.90
2867;DHT22;1441;48.886;8.728;2022-12-11T04:42:13;-0.70;99.90
2867;DHT22;1441;48.886;8.728;2022-12-11T04:44:39;-0.70;99.90
2867;DHT22;1441;48.886;8.728;2022-12-11T04:47:05;-0.70;99.90
2867;DHT22;1441;48.886;8.728;2022-12-11T04:49:30;-0.70;99.90
2867;DHT22;1441;48.886;8.728;2022-12-11T04:51:56;-0.70;99.90
2867;DHT22;1441;48.886;8.728;2022-12-11T04:54:21;-0.70;99.90
2867;DHT22;1441;48.886;8.728;2022-12-11T04:56:47;-0.60;99.90
2867;DHT22;1441;48.886;8.728;2022-12-11T04:59:12;-0.70;99.90
2867;DHT22;1441;48.886;8.728;2022-12-11T05:01:38;-0.60;99.90
2867;DHT22;1441;48.886;8.728;2022-12-11T05:04:04;-0.60;99.90
2867;DHT22;1441;48.886;8.728;2022-12-11T05:06:29;-0.60;99.90
2867;DHT22;1441;48.886;8.728;2022-12-11T05:08:55;-0.70;99.90
2867;DHT22;1441;48.886;8.728;2022-12-11T05:11:20;-0.70;99.90
2867;DHT22;1441;48.886;8.728;2022-12-11T05:13:46;-0.70;99.90
2867;DHT22;1441;48.886;8.728;2022-12-11T05:16:14;-0.70;99.90
2867;DHT22;1441;48.886;8.728;2022-12-11T05:18:40;-0.50;99.90
2867;DHT22;1441;48.886;8.728;2022-12-11T05:21:09;-0.50;99.90
2867;DHT22;1441;48.886;8.728;2022-12-11T05:23:36;-0.40;99.90
2867;DHT22;1441;48.886;8.728;2022-12-11T05:26:04;-0.50;99.90
2867;DHT22;1441;48.886;8.728;2022-12-11T05:28:33;-0.80;99.90
2867;DHT22;1441;48.886;8.728;2022-12-11T05:31:05;-0.80;99.90
2867;DHT22;1441;48.886;8.728;2022-12-11T05:33:31;-0.90;99.90
2867;DHT22;1441;48.886;8.728;2022-12-11T05:35:58;-0.90;99.90
2867;DHT22;1441;48.886;8.728;2022-12-11T05:38:24;-1.00;99.90
2867;DHT22;1441;48.886;8.728;2022-12-11T05:43:22;-1.10;99.90
2867;DHT22;1441;48.886;8.728;2022-12-11T05:45:47;-1.00;99.90
2867;DHT22;1441;48.886;8.728;2022-12-11T05:48:13;-1.10;99.90
2867;DHT22;1441;48.886;8.728;2022-12-11T05:50:38;-1.10;99.90
2867;DHT22;1441;48.886;8.728;2022-12-11T05:53:04;-1.10;99.90
2867;DHT22;1441;48.886;8.728;2022-12-11T05:55:33;-1.30;99.90
2867;DHT22;1441;48.886;8.728;2022-12-11T05:57:59;-1.30;99.90
2867;DHT22;1441;48.886;8.728;2022-12-11T06:00:24;-1.40;99.90
2867;DHT22;1441;48.886;8.728;2022-12-11T06:02:51;-1.40;99.90
2867;DHT22;1441;48.886;8.728;2022-12-11T06:05:17;-1.40;99.90
2867;DHT22;1441;48.886;8.728;2022-12-11T06:07:42;-1.40;99.90
2867;DHT22;1441;48.886;8.728;2022-12-11T06:10:08;-1.40;99.90
2867;DHT22;1441;48.886;8.728;2022-12-11T06:12:34;-1.40;99.90
2867;DHT22;1441;48.886;8.728;2022-12-11T06:14:59;-1.40;99.90
2867;DHT22;1441;48.886;8.728;2022-12-11T06:17:25;-1.30;99.90
2867;DHT22;1441;48.886;8.728;2022-12-11T06:19:50;-1.20;99.90
2867;DHT22;1441;48.886;8.728;2022-12-11T06:22:16;-1.10;99.90
2867;DHT22;1441;48.886;8.728;2022-12-11T06:24:42;-1.20;99.90
2867;DHT22;1441;48.886;8.728;2022-12-11T06:27:07;-1.20;99.90
2867;DHT22;1441;48.886;8.728;2022-12-11T06:29:33;-1.30;99.90
2867;DHT22;1441;48.886;8.728;2022-12-11T06:31:58;-1.30;99.90
2867;DHT22;1441;48.886;8.728;2022-12-11T06:34:24;-1.30;99.90
2867;DHT22;1441;48.886;8.728;2022-12-11T06:36:50;-1.30;99.90
2867;DHT22;1441;48.886;8.728;2022-12-11T06:39:15;-1.30;99.90
2867;DHT22;1441;48.886;8.728;2022-12-11T06:41:41;-1.20;99.90
2867;DHT22;1441;48.886;8.728;2022-12-11T06:44:06;-1.20;99.90
2867;DHT22;1441;48.886;8.728;2022-12-11T06:46:32;-1.10;99.90
2867;DHT22;1441;48.886;8.728;2022-12-11T06:48:57;-1.20;99.90
2867;DHT22;1441;48.886;8.728;2022-12-11T06:51:23;-1.20;99.90
2867;DHT22;1441;48.886;8.728;2022-12-11T06:53:53;-1.20;99.90
2867;DHT22;1441;48.886;8.728;2022-12-11T06:56:20;-1.10;99.90
2867;DHT22;1441;48.886;8.728;2022-12-11T06:58:46;-1.10;99.90
2867;DHT22;1441;48.886;8.728;2022-12-11T07:01:21;-1.20;99.90
2867;DHT22;1441;48.886;8.728;2022-12-11T07:03:46;-1.20;99.90
2867;DHT22;1441;48.886;8.728;2022-12-11T07:06:13;-1.20;99.90
2867;DHT22;1441;48.886;8.728;2022-12-11T07:08:38;-1.20;99.90
2867;DHT22;1441;48.886;8.728;2022-12-11T07:11:09;-1.20;99.90
2867;DHT22;1441;48.886;8.728;2022-12-11T07:13:35;-1.10;99.90
2867;DHT22;1441;48.886;8.728;2022-12-11T07:16:01;-1.10;99.90
2867;DHT22;1441;48.886;8.728;2022-12-11T07:18:29;-1.20;99.90
2867;DHT22;1441;48.886;8.728;2022-12-11T07:20:57;-1.00;99.90
2867;DHT22;1441;48.886;8.728;2022-12-11T07:23:23;-0.70;99.90
2867;DHT22;1441;48.886;8.728;2022-12-11T07:25:49;-0.60;99.90
2867;DHT22;1441;48.886;8.728;2022-12-11T07:28:14;-0.60;99.90
2867;DHT22;1441;48.886;8.728;2022-12-11T07:30:40;-0.70;99.90
2867;DHT22;1441;48.886;8.728;2022-12-11T07:33:05;-0.70;99.90
2867;DHT22;1441;48.886;8.728;2022-12-11T07:35:33;-0.60;99.90
2867;DHT22;1441;48.886;8.728;2022-12-11T07:37:59;-0.50;99.90
2867;DHT22;1441;48.886;8.728;2022-12-11T07:40:25;-0.60;99.90
2867;DHT22;1441;48.886;8.728;2022-12-11T07:42:50;-0.80;99.90
2867;DHT22;1441;48.886;8.728;2022-12-11T07:45:16;-0.80;99.90
2867;DHT22;1441;48.886;8.728;2022-12-11T07:47:41;-0.80;99.90
2867;DHT22;1441;48.886;8.728;2022-12-11T07:50:07;-0.80;99.90
2867;DHT22;1441;48.886;8.728;2022-12-11T07:52:33;-0.80;99.90
2867;DHT22;1441;48.886;8.728;2022-12-11T07:54:59;-0.70;99.90
2867;DHT22;1441;48.886;8.728;2022-12-11T07:57:24;-0.80;99.90
2867;DHT22;1441;48.886;8.728;2022-12-11T07:59:50;-0.90;99.90
2867;DHT22;1441;48.886;8.728;2022-12-11T08:02:15;-0.80;99.90
2867;DHT22;1441;48.886;8.728;2022-12-11T08:04:41;-0.70;99.90
2867;DHT22;1441;48.886;8.728;2022-12-11T08:07:07;-0.60;99.90
2867;DHT22;1441;48.886;8.728;2022-12-11T08:09:32;-0.60;99.90
2867;DHT22;1441;48.886;8.728;2022-12-11T08:11:58;-0.50;99.90
2867;DHT22;1441;48.886;8.728;2022-12-11T08:14:23;-0.60;99.90
2867;DHT22;1441;48.886;8.728;2022-12-11T08:16:49;-0.60;99.90
2867;DHT22;1441;48.886;8.728;2022-12-11T08:19:15;-0.40;99.90
2867;DHT22;1441;48.886;8.728;2022-12-11T08:21:41;-0.30;99.90
2867;DHT22;1441;48.886;8.728;2022-12-11T08:24:07;-0.10;99.90
2867;DHT22;1441;48.886;8.728;2022-12-11T08:26:33;-0.20;99.90
2867;DHT22;1441;48.886;8.728;2022-12-11T08:29:00;-0.20;99.90
2867;DHT22;1441;48.886;8.728;2022-12-11T08:31:25;-0.10;99.90
2867;DHT22;1441;48.886;8.728;2022-12-11T08:33:51;-0.10;99.90
2867;DHT22;1441;48.886;8.728;2022-12-11T08:36:19;0.00;99.90
2867;DHT22;1441;48.886;8.728;2022-12-11T08:38:45;0.10;99.60
2867;DHT22;1441;48.886;8.728;2022-12-11T08:41:14;-0.10;99.70
2867;DHT22;1441;48.886;8.728;2022-12-11T08:43:41;-0.10;99.90
2867;DHT22;1441;48.886;8.728;2022-12-11T08:46:07;0.00;99.90
2867;DHT22;1441;48.886;8.728;2022-12-11T08:48:34;0.00;99.70
2867;DHT22;1441;48.886;8.728;2022-12-11T08:51:01;0.00;99.80
2867;DHT22;1441;48.886;8.728;2022-12-11T08:53:31;0.00;99.40
2867;DHT22;1441;48.886;8.728;2022-12-11T08:56:05;0.00;99.90
2867;DHT22;1441;48.886;8.728;2022-12-11T08:58:31;0.00;99.50
2867;DHT22;1441;48.886;8.728;2022-12-11T09:00:56;0.00;99.40
2867;DHT22;1441;48.886;8.728;2022-12-11T09:03:23;0.00;99.40
2867;DHT22;1441;48.886;8.728;2022-12-11T09:05:49;0.00;99.90
2867;DHT22;1441;48.886;8.728;2022-12-11T09:08:14;-0.40;99.90
2867;DHT22;1441;48.886;8.728;2022-12-11T09:10:40;-0.60;99.90
2867;DHT22;1441;48.886;8.728;2022-12-11T09:13:05;-0.70;99.90
2867;DHT22;1441;48.886;8.728;2022-12-11T09:15:31;-0.60;99.90
2867;DHT22;1441;48.886;8.728;2022-12-11T09:17:57;-0.60;99.90
2867;DHT22;1441;48.886;8.728;2022-12-11T09:20:22;-0.60;99.90
2867;DHT22;1441;48.886;8.728;2022-12-11T09:22:48;-0.50;99.90
2867;DHT22;1441;48.886;8.728;2022-12-11T09:25:13;-0.40;99.90
2867;DHT22;1441;48.886;8.728;2022-12-11T09:27:39;-0.40;99.90
2867;DHT22;1441;48.886;8.728;2022-12-11T09:30:05;-0.40;99.90
2867;DHT22;1441;48.886;8.728;2022-12-11T09:32:31;-0.40;99.90
2867;DHT22;1441;48.886;8.728;2022-12-11T09:34:56;-0.30;99.90
2867;DHT22;1441;48.886;8.728;2022-12-11T09:37:22;-0.20;99.90
2867;DHT22;1441;48.886;8.728;2022-12-11T09:39:47;-0.10;99.90
2867;DHT22;1441;48.886;8.728;2022-12-11T09:42:20;-0.10;99.90
2867;DHT22;1441;48.886;8.728;2022-12-11T09:44:56;-0.10;99.90
2867;DHT22;1441;48.886;8.728;2022-12-11T09:47:41;-0.10;99.90
2867;DHT22;1441;48.886;8.728;2022-12-11T09:55:14;0.10;99.90
2867;DHT22;1441;48.886;8.728;2022-12-11T10:00:42;0.50;99.90
2867;DHT22;1441;48.886;8.728;2022-12-11T10:06:09;0.90;99.20
2867;DHT22;1441;48.886;8.728;2022-12-11T10:08:54;1.10;98.40
2867;DHT22;1441;48.886;8.728;2022-12-11T10:16:51;1.60;96.40
2867;DHT22;1441;48.886;8.728;2022-12-11T10:19:21;1.70;96.10
2867;DHT22;1441;48.886;8.728;2022-12-11T10:21:49;1.70;95.70
2867;DHT22;1441;48.886;8.728;2022-12-11T10:24:33;1.80;95.20
2867;DHT22;1441;48.886;8.728;2022-12-11T10:27:22;1.70;94.60
2867;DHT22;1441;48.886;8.728;2022-12-11T10:29:54;1.60;94.70
2867;DHT22;1441;48.886;8.728;2022-12-11T10:32:38;1.70;94.20
2867;DHT22;1441;48.886;8.728;2022-12-11T10:35:09;1.70;93.80
2867;DHT22;1441;48.886;8.728;2022-12-11T10:37:40;1.70;94.20
2867;DHT22;1441;48.886;8.728;2022-12-11T10:40:07;1.60;94.00
2867;DHT22;1441;48.886;8.728;2022-12-11T10:42:32;1.60;94.60
2867;DHT22;1441;48.886;8.728;2022-12-11T10:45:00;1.60;94.70
2867;DHT22;1441;48.886;8.728;2022-12-11T10:47:27;1.70;94.20
2867;DHT22;1441;48.886;8.728;2022-12-11T10:49:58;1.70;93.50
2867;DHT22;1441;48.886;8.728;2022-12-11T10:52:27;1.60;94.10
2867;DHT22;1441;48.886;8.728;2022-12-11T10:55:03;1.70;94.40
2867;DHT22;1441;48.886;8.728;2022-12-11T10:57:35;1.70;94.20
2867;DHT22;1441;48.886;8.728;2022-12-11T11:00:05;1.60;93.70
2867;DHT22;1441;48.886;8.728;2022-12-11T11:02:38;1.70;93.70
2867;DHT22;1441;48.886;8.728;2022-12-11T11:05:24;1.80;93.40
2867;DHT22;1441;48.886;8.728;2022-12-11T11:08:02;1.90;92.90
2867;DHT22;1441;48.886;8.728;2022-12-11T11:10:28;1.80;92.90
2867;DHT22;1441;48.886;8.728;2022-12-11T11:13:01;1.80;93.20
2867;DHT22;1441;48.886;8.728;2022-12-11T11:15:28;1.80;93.60
2867;DHT22;1441;48.886;8.728;2022-12-11T11:17:56;1.90;93.60
2867;DHT22;1441;48.886;8.728;2022-12-11T11:20:28;1.80;93.00
2867;DHT22;1441;48.886;8.728;2022-12-11T11:22:56;1.80;92.40
2867;DHT22;1441;48.886;8.728;2022-12-11T11:25:27;1.80;92.60
2867;DHT22;1441;48.886;8.728;2022-12-11T11:28:03;1.80;93.00
2867;DHT22;1441;48.886;8.728;2022-12-11T11:30:40;1.90;93.20
2867;DHT22;1441;48.886;8.728;2022-12-11T11:33:20;1.90;93.20
2867;DHT22;1441;48.886;8.728;2022-12-11T11:36:06;1.90;93.40
2867;DHT22;1441;48.886;8.728;2022-12-11T11:38:38;1.80;93.30
2867;DHT22;1441;48.886;8.728;2022-12-11T11:41:09;1.80;94.10
2867;DHT22;1441;48.886;8.728;2022-12-11T11:43:50;1.80;94.50
2867;DHT22;1441;48.886;8.728;2022-12-11T11:46:28;1.80;95.30
2867;DHT22;1441;48.886;8.728;2022-12-11T11:51:44;1.80;95.00
2867;DHT22;1441;48.886;8.728;2022-12-11T11:56:58;1.80;94.80
2867;DHT22;1441;48.886;8.728;2022-12-11T11:59:37;1.80;95.20
2867;DHT22;1441;48.886;8.728;2022-12-11T12:02:13;1.90;94.40
2867;DHT22;1441;48.886;8.728;2022-12-11T12:04:40;1.90;95.70
2867;DHT22;1441;48.886;8.728;2022-12-11T12:07:23;2.20;94.00
2867;DHT22;1441;48.886;8.728;2022-12-11T12:10:21;2.30;92.90
2867;DHT22;1441;48.886;8.728;2022-12-11T12:15:55;2.00;94.30
2867;DHT22;1441;48.886;8.728;2022-12-11T12:18:38;1.80;95.80
2867;DHT22;1441;48.886;8.728;2022-12-11T12:23:52;1.70;95.90
2867;DHT22;1441;48.886;8.728;2022-12-11T12:26:28;1.70;95.50
2867;DHT22;1441;48.886;8.728;2022-12-11T12:37:50;2.30;92.10
2867;DHT22;1441;48.886;8.728;2022-12-11T12:43:34;2.20;92.80
2867;DHT22;1441;48.886;8.728;2022-12-11T12:48:35;2.40;91.60
2867;DHT22;1441;48.886;8.728;2022-12-11T12:51:02;2.40;91.90
2867;DHT22;1441;48.886;8.728;2022-12-11T12:53:32;2.50;91.90
2867;DHT22;1441;48.886;8.728;2022-12-11T12:56:00;2.30;92.20
2867;DHT22;1441;48.886;8.728;2022-12-11T13:01:27;2.20;92.80
2867;DHT22;1441;48.886;8.728;2022-12-11T13:06:37;2.10;93.40
2867;DHT22;1441;48.886;8.728;2022-12-11T13:09:24;2.30;93.00
2867;DHT22;1441;48.886;8.728;2022-12-11T13:11:53;2.20;93.40
2867;DHT22;1441;48.886;8.728;2022-12-11T13:14:30;2.10;94.50
2867;DHT22;1441;48.886;8.728;2022-12-11T13:19:44;2.10;94.50
2867;DHT22;1441;48.886;8.728;2022-12-11T13:27:39;2.30;93.20
2867;DHT22;1441;48.886;8.728;2022-12-11T13:33:05;2.20;93.00
2867;DHT22;1441;48.886;8.728;2022-12-11T13:35:32;2.10;93.20
2867;DHT22;1441;48.886;8.728;2022-12-11T13:38:18;1.90;94.90
2867;DHT22;1441;48.886;8.728;2022-12-11T13:40:51;2.00;94.60
2867;DHT22;1441;48.886;8.728;2022-12-11T13:43:21;2.20;93.90
2867;DHT22;1441;48.886;8.728;2022-12-11T13:45:50;2.10;93.90
2867;DHT22;1441;48.886;8.728;2022-12-11T13:48:23;2.20;93.70
2867;DHT22;1441;48.886;8.728;2022-12-11T13:50:52;2.30;93.40
2867;DHT22;1441;48.886;8.728;2022-12-11T13:53:20;2.20;94.20
2867;DHT22;1441;48.886;8.728;2022-12-11T13:55:46;2.20;94.60
2867;DHT22;1441;48.886;8.728;2022-12-11T13:58:21;2.30;93.70
2867;DHT22;1441;48.886;8.728;2022-12-11T14:03:27;2.20;93.80
2867;DHT22;1441;48.886;8.728;2022-12-11T14:05:54;2.10;94.00
2867;DHT22;1441;48.886;8.728;2022-12-11T14:08:23;2.20;93.80
2867;DHT22;1441;48.886;8.728;2022-12-11T14:10:52;2.00;94.40
2867;DHT22;1441;48.886;8.728;2022-12-11T14:13:24;2.00;94.50
2867;DHT22;1441;48.886;8.728;2022-12-11T14:15:50;1.90;94.60
2867;DHT22;1441;48.886;8.728;2022-12-11T14:18:23;1.80;95.00
2867;DHT22;1441;48.886;8.728;2022-12-11T14:20:54;1.80;94.50
2867;DHT22;1441;48.886;8.728;2022-12-11T14:23:23;1.80;94.90
2867;DHT22;1441;48.886;8.728;2022-12-11T14:25:53;1.80;94.90
2867;DHT22;1441;48.886;8.728;2022-12-11T14:28:19;1.80;94.80
2867;DHT22;1441;48.886;8.728;2022-12-11T14:30:52;1.90;94.60
2867;DHT22;1441;48.886;8.728;2022-12-11T14:33:21;1.90;93.80
2867;DHT22;1441;48.886;8.728;2022-12-11T14:35:49;1.60;95.30
2867;DHT22;1441;48.886;8.728;2022-12-11T14:38:20;1.40;97.10
2867;DHT22;1441;48.886;8.728;2022-12-11T14:40:50;1.20;98.00
2867;DHT22;1441;48.886;8.728;2022-12-11T14:43:27;1.40;97.20
2867;DHT22;1441;48.886;8.728;2022-12-11T14:45:58;1.30;97.60
2867;DHT22;1441;48.886;8.728;2022-12-11T14:48:29;1.20;97.90
2867;DHT22;1441;48.886;8.728;2022-12-11T14:51:00;1.20;98.10
2867;DHT22;1441;48.886;8.728;2022-12-11T14:53:30;1.20;98.00
2867;DHT22;1441;48.886;8.728;2022-12-11T14:56:01;1.00;98.50
2867;DHT22;1441;48.886;8.728;2022-12-11T14:58:28;1.00;98.80
2867;DHT22;1441;48.886;8.728;2022-12-11T15:00:59;1.00;98.20
2867;DHT22;1441;48.886;8.728;2022-12-11T15:05:57;1.00;97.90
2867;DHT22;1441;48.886;8.728;2022-12-11T15:08:28;0.90;98.60
2867;DHT22;1441;48.886;8.728;2022-12-11T15:13:29;1.10;97.30
2867;DHT22;1441;48.886;8.728;2022-12-11T15:15:56;0.90;97.60
2867;DHT22;1441;48.886;8.728;2022-12-11T15:18:24;0.90;97.70
2867;DHT22;1441;48.886;8.728;2022-12-11T15:24:33;0.70;99.90
2867;DHT22;1441;48.886;8.728;2022-12-11T15:27:00;0.60;99.90
2867;DHT22;1441;48.886;8.728;2022-12-11T15:29:33;0.60;99.90
2867;DHT22;1441;48.886;8.728;2022-12-11T15:34:43;0.60;99.10
2867;DHT22;1441;48.886;8.728;2022-12-11T15:37:25;0.60;99.30
2867;DHT22;1441;48.886;8.728;2022-12-11T15:39:52;0.50;99.60
2867;DHT22;1441;48.886;8.728;2022-12-11T15:42:32;0.60;99.40
2867;DHT22;1441;48.886;8.728;2022-12-11T15:44:59;0.50;99.70
2867;DHT22;1441;48.886;8.728;2022-12-11T15:47:27;0.40;99.90
2867;DHT22;1441;48.886;8.728;2022-12-11T15:49:58;0.50;99.90
2867;DHT22;1441;48.886;8.728;2022-12-11T15:52:24;0.50;99.90
2867;DHT22;1441;48.886;8.728;2022-12-11T15:54:50;0.50;99.90
2867;DHT22;1441;48.886;8.728;2022-12-11T15:57:18;0.50;99.90
2867;DHT22;1441;48.886;8.728;2022-12-11T15:59:44;0.50;99.80
2867;DHT22;1441;48.886;8.728;2022-12-11T16:02:13;0.60;99.90
2867;DHT22;1441;48.886;8.728;2022-12-11T16:04:39;0.60;99.90
2867;DHT22;1441;48.886;8.728;2022-12-11T16:07:15;0.60;99.90
2867;DHT22;1441;48.886;8.728;2022-12-11T16:09:41;0.60;99.90
2867;DHT22;1441;48.886;8.728;2022-12-11T16:12:07;0.60;99.80
2867;DHT22;1441;48.886;8.728;2022-12-11T16:14:32;0.60;99.90
2867;DHT22;1441;48.886;8.728;2022-12-11T16:17:02;0.60;99.90
2867;DHT22;1441;48.886;8.728;2022-12-11T16:19:28;0.50;99.90
2867;DHT22;1441;48.886;8.728;2022-12-11T16:21:53;0.50;99.90
2867;DHT22;1441;48.886;8.728;2022-12-11T16:24:19;0.60;99.90
2867;DHT22;1441;48.886;8.728;2022-12-11T16:26:45;0.50;99.90
2867;DHT22;1441;48.886;8.728;2022-12-11T16:29:10;0.50;99.90
2867;DHT22;1441;48.886;8.728;2022-12-11T16:31:36;0.50;99.90
2867;DHT22;1441;48.886;8.728;2022-12-11T16:34:01;0.60;99.70
2867;DHT22;1441;48.886;8.728;2022-12-11T16:36:27;0.60;99.90
2867;DHT22;1441;48.886;8.728;2022-12-11T16:38:52;0.60;99.90
2867;DHT22;1441;48.886;8.728;2022-12-11T16:41:18;0.60;99.90
2867;DHT22;1441;48.886;8.728;2022-12-11T16:43:43;0.60;99.90
2867;DHT22;1441;48.886;8.728;2022-12-11T16:46:09;0.50;99.90
2867;DHT22;1441;48.886;8.728;2022-12-11T16:48:34;0.50;99.90
2867;DHT22;1441;48.886;8.728;2022-12-11T16:51:00;0.50;99.90
2867;DHT22;1441;48.886;8.728;2022-12-11T16:53:26;0.50;99.90
2867;DHT22;1441;48.886;8.728;2022-12-11T16:55:51;0.60;99.90
2867;DHT22;1441;48.886;8.728;2022-12-11T16:58:17;0.60;99.90
2867;DHT22;1441;48.886;8.728;2022-12-11T17:00:46;0.60;99.90
2867;DHT22;1441;48.886;8.728;2022-12-11T17:03:13;0.50;99.90
2867;DHT22;1441;48.886;8.728;2022-12-11T17:05:39;0.50;99.90
2867;DHT22;1441;48.886;8.728;2022-12-11T17:08:06;0.50;99.90
2867;DHT22;1441;48.886;8.728;2022-12-11T17:10:32;0.50;99.90
2867;DHT22;1441;48.886;8.728;2022-12-11T17:12:58;0.50;99.90
2867;DHT22;1441;48.886;8.728;2022-12-11T17:15:23;0.50;99.90
2867;DHT22;1441;48.886;8.728;2022-12-11T17:17:49;0.50;99.90
2867;DHT22;1441;48.886;8.728;2022-12-11T17:20:14;0.50;99.90
2867;DHT22;1441;48.886;8.728;2022-12-11T17:22:40;0.50;99.90
2867;DHT22;1441;48.886;8.728;2022-12-11T17:25:06;0.50;99.90
2867;DHT22;1441;48.886;8.728;2022-12-11T17:27:32;0.50;99.90
2867;DHT22;1441;48.886;8.728;2022-12-11T17:29:58;0.50;99.90
2867;DHT22;1441;48.886;8.728;2022-12-11T17:32:23;0.40;99.90
2867;DHT22;1441;48.886;8.728;2022-12-11T17:34:49;0.50;99.90
2867;DHT22;1441;48.886;8.728;2022-12-11T17:37:16;0.50;99.90
2867;DHT22;1441;48.886;8.728;2022-12-11T17:39:41;0.50;99.90
2867;DHT22;1441;48.886;8.728;2022-12-11T17:42:07;0.40;99.90
2867;DHT22;1441;48.886;8.728;2022-12-11T17:44:33;0.40;99.90
2867;DHT22;1441;48.886;8.728;2022-12-11T17:46:59;0.50;99.90
2867;DHT22;1441;48.886;8.728;2022-12-11T17:49:25;0.50;99.90